Time;durP1;ratioP1;P1;durP2;ratioP2;P2;SDS_P1;SDS_P2;PMS_P1;PMS_P2;Temp;Humidity;BMP_temperature;BMP_pressure;BME280_temperature;BME280_humidity;BME280_pressure;Samples;Min_cycle;Max_cycle;Signal;HPM_P1;HPM_P2
2023/09/20 00:01:46;;;;;;;;;;;;;;;;;;5094564;28;20254;-25
2023/09/20 00:04:12;;;;;;;;;;;;;;;;;;5094455;28;19919;-23
2023/09/20 00:06:38;;;;;;;;;;;;;;;;;;5094442;28;19912;-23
2023/09/20 00:09:05;;;;;;;;;;;;;;;;;;5094731;28;19954;-26
2023/09/20 00:11:30;;;;;;;;;;;;;;;;;;5094435;28;19919;-26
2023/09/20 00:13:59;;;;;;;;;;;;;;;;;;5094380;28;20367;-30
2023/09/20 00:16:25;;;;;;;;;;;;;;;;;;5094362;28;19919;-30
2023/09/20 00:18:51;;;;;;;;;;;;;;;;;;5094662;28;19940;-26
2023/09/20 00:21:17;;;;;;;;;;;;;;;;;;5094343;28;20322;-29
2023/09/20 00:23:43;;;;;;;;;;;;;;;;;;5094576;28;19965;-32
2023/09/20 00:26:10;;;;;;;;;;;;;;;;;;5094260;28;20335;-21
2023/09/20 00:28:38;;;;;;;;;;;;;;;;;;5094620;28;19912;-26
2023/09/20 00:31:05;;;;;;;;;;;;;;;;;;5094210;28;19908;-24
2023/09/20 00:33:32;;;;;;;;;;;;;;;;;;5094737;28;19912;-30
2023/09/20 00:35:58;;;;;;;;;;;;;;;;;;5097873;28;20041;-30
2023/09/20 00:38:24;;;;;;;;;;;;;;;;;;5098155;28;19969;-24
2023/09/20 00:40:50;;;;;;;;;;;;;;;;;;5097806;28;20331;-21
2023/09/20 00:43:16;;;;;;;;;;;;;;;;;;5097691;28;19908;-21
2023/09/20 00:45:42;;;;;;;;;;;;;;;;;;5097697;28;19934;-25
2023/09/20 00:48:13;;;;;;;;;;;;;;;;;;5097718;28;19958;-26
2023/09/20 00:50:41;;;;;;;;;;;;;;;;;;5097997;28;20305;-25
2023/09/20 00:53:07;;;;;;;;;;;;;;;;;;5097550;28;19908;-25
2023/09/20 00:55:33;;;;;;;;;;;;;;;;;;5097554;28;19908;-26
2023/09/20 00:58:03;;;;;;;;;;;;;;;;;;5097500;28;20009;-25
2023/09/20 01:00:30;;;;;;;;;;;;;;;;;;5097401;28;19994;-26
2023/09/20 01:02:55;;;;;;;;;;;;;;;;;;5097333;28;19908;-22
2023/09/20 01:05:21;;;;;;;;;;;;;;;;;;5097610;28;19915;-22
2023/09/20 01:07:49;;;;;;;;;;;;;;;;;;5097203;28;19923;-22
2023/09/20 01:10:15;;;;;;;;;;;;;;;;;;5096288;28;19912;-23
2023/09/20 01:12:40;;;;;;;;;;;;;;;;;;5097231;28;19924;-26
2023/09/20 01:15:07;;;;;;;;;;;;;;;;;;5097228;28;20031;-22
2023/09/20 01:17:33;;;;;;;;;;;;;;;;;;5097155;28;19912;-25
2023/09/20 01:20:01;;;;;;;;;;;;;;;;;;5097356;28;19908;-28
2023/09/20 01:22:27;;;;;;;;;;;;;;;;;;5097022;28;19969;-25
2023/09/20 01:24:55;;;;;;;;;;;;;;;;;;5097001;28;20280;-25
2023/09/20 01:27:21;;;;;;;;;;;;;;;;;;5096683;28;20007;-23
2023/09/20 01:29:48;;;;;;;;;;;;;;;;;;5096958;28;20296;-23
2023/09/20 01:32:14;;;;;;;;;;;;;;;;;;5097313;28;19908;-27
2023/09/20 01:34:41;;;;;;;;;;;;;;;;;;5097094;28;19919;-22
2023/09/20 01:37:07;;;;;;;;;;;;;;;;;;5096745;28;20246;-22
2023/09/20 01:39:33;;;;;;;;;;;;;;;;;;5096991;28;19919;-25
2023/09/20 01:42:00;;;;;;;;;;;;;;;;;;5096604;28;20308;-25
2023/09/20 01:44:27;;;;;;;;;;;;;;;;;;5096610;28;20258;-27
2023/09/20 01:46:53;;;;;;;;;;;;;;;;;;5096492;28;19942;-25
2023/09/20 01:49:21;;;;;;;;;;;;;;;;;;5096752;28;19924;-28
2023/09/20 01:51:47;;;;;;;;;;;;;;;;;;5096429;28;19908;-24
2023/09/20 01:54:13;;;;;;;;;;;;;;;;;;5096347;28;19912;-27
2023/09/20 01:56:39;;;;;;;;;;;;;;;;;;5096421;28;19908;-24
2023/09/20 01:59:05;;;;;;;;;;;;;;;;;;5096542;28;19920;-24
2023/09/20 02:01:31;;;;;;;;;;;;;;;;;;5096268;28;19973;-25
2023/09/20 02:03:58;;;;;;;;;;;;;;;;;;5096214;28;19908;-28
2023/09/20 02:06:24;;;;;;;;;;;;;;;;;;5096090;28;19912;-21
2023/09/20 02:08:50;;;;;;;;;;;;;;;;;;5096389;28;19908;-28
2023/09/20 02:11:16;;;;;;;;;;;;;;;;;;5096071;28;20023;-23
2023/09/20 02:13:42;;;;;;;;;;;;;;;;;;5095986;28;19908;-25
2023/09/20 02:16:08;;;;;;;;;;;;;;;;;;5095976;28;19908;-24
2023/09/20 02:18:34;;;;;;;;;;;;;;;;;;5095982;28;19908;-27
2023/09/20 02:20:59;;;;;;;;;;;;;;;;;;5095934;28;19909;-26
2023/09/20 02:23:27;;;;;;;;;;;;;;;;;;5095885;28;19954;-27
2023/09/20 02:25:54;;;;;;;;;;;;;;;;;;5095617;28;19916;-25
2023/09/20 02:28:20;;;;;;;;;;;;;;;;;;5096056;28;19908;-23
2023/09/20 02:30:51;;;;;;;;;;;;;;;;;;5095756;28;19919;-25
2023/09/20 02:33:17;;;;;;;;;;;;;;;;;;5095564;28;19915;-22
2023/09/20 02:35:44;;;;;;;;;;;;;;;;;;5095913;28;19908;-22
2023/09/20 02:38:10;;;;;;;;;;;;;;;;;;5095546;28;20211;-21
2023/09/20 02:40:36;;;;;;;;;;;;;;;;;;5095799;28;19919;-25
2023/09/20 02:43:08;;;;;;;;;;;;;;;;;;5095584;28;19908;-20
2023/09/20 02:45:36;;;;;;;;;;;;;;;;;;5096027;28;20005;-26
2023/09/20 02:48:04;;;;;;;;;;;;;;;;;;5095421;28;20257;-29
2023/09/20 02:50:29;;;;;;;;;;;;;;;;;;5095352;28;19970;-25
2023/09/20 02:52:56;;;;;;;;;;;;;;;;;;5095331;28;19913;-26
2023/09/20 02:55:22;;;;;;;;;;;;;;;;;;5095334;28;19965;-23
2023/09/20 02:57:52;;;;;;;;;;;;;;;;;;5095147;28;20326;-24
2023/09/20 03:00:21;;;;;;;;;;;;;;;;;;5095249;28;19960;-27
2023/09/20 03:02:47;;;;;;;;;;;;;;;;;;5095403;28;20250;-25
2023/09/20 03:05:13;;;;;;;;;;;;;;;;;;5095167;28;19998;-27
2023/09/20 03:07:42;;;;;;;;;;;;;;;;;;5095064;28;19912;-21
2023/09/20 03:10:12;;;;;;;;;;;;;;;;;;5095083;28;19908;-24
2023/09/20 03:12:38;;;;;;;;;;;;;;;;;;5094972;28;19908;-28
2023/09/20 03:15:05;;;;;;;;;;;;;;;;;;5095078;28;19909;-31
2023/09/20 03:17:32;;;;;;;;;;;;;;;;;;5094999;28;20396;-29
2023/09/20 03:19:58;;;;;;;;;;;;;;;;;;5095235;28;19935;-24
2023/09/20 03:22:24;;;;;;;;;;;;;;;;;;5094817;28;20353;-22
2023/09/20 03:24:51;;;;;;;;;;;;;;;;;;5094879;28;19927;-24
2023/09/20 03:27:17;;;;;;;;;;;;;;;;;;5094622;28;19920;-22
2023/09/20 03:29:43;;;;;;;;;;;;;;;;;;5095134;28;19908;-26
2023/09/20 03:32:09;;;;;;;;;;;;;;;;;;5094740;28;19919;-25
2023/09/20 03:34:35;;;;;;;;;;;;;;;;;;5095093;28;19908;-21
2023/09/20 03:37:01;;;;;;;;;;;;;;;;;;5094709;28;19994;-24
2023/09/20 03:39:27;;;;;;;;;;;;;;;;;;5094670;28;19966;-27
2023/09/20 03:41:53;;;;;;;;;;;;;;;;;;5094538;28;19919;-24
2023/09/20 03:44:19;;;;;;;;;;;;;;;;;;5094885;28;19909;-23
2023/09/20 03:46:47;;;;;;;;;;;;;;;;;;5094564;28;20061;-28
2023/09/20 03:49:13;;;;;;;;;;;;;;;;;;5094587;28;19916;-31
2023/09/20 03:51:39;;;;;;;;;;;;;;;;;;5094800;28;20335;-24
2023/09/20 03:54:04;;;;;;;;;;;;;;;;;;5094434;28;19908;-28
2023/09/20 03:56:30;;;;;;;;;;;;;;;;;;5094420;28;20366;-25
2023/09/20 03:58:57;;;;;;;;;;;;;;;;;;5094433;28;20275;-25
2023/09/20 04:01:23;;;;;;;;;;;;;;;;;;5094236;28;19916;-26
2023/09/20 04:03:49;;;;;;;;;;;;;;;;;;5093197;28;20243;-26
2023/09/20 04:06:15;;;;;;;;;;;;;;;;;;5094271;28;19952;-22
2023/09/20 04:08:41;;;;;;;;;;;;;;;;;;5095214;28;19912;-22
2023/09/20 04:11:07;;;;;;;;;;;;;;;;;;5097137;28;20297;-25
2023/09/20 04:13:33;;;;;;;;;;;;;;;;;;5097835;28;19919;-24
2023/09/20 04:15:59;;;;;;;;;;;;;;;;;;5097914;28;19957;-26
2023/09/20 04:18:26;;;;;;;;;;;;;;;;;;5097879;28;19932;-27
2023/09/20 04:20:52;;;;;;;;;;;;;;;;;;5098011;28;19915;-24
2023/09/20 04:23:18;;;;;;;;;;;;;;;;;;5097884;28;19908;-23
2023/09/20 04:25:43;;;;;;;;;;;;;;;;;;5097451;28;19908;-27
2023/09/20 04:28:09;;;;;;;;;;;;;;;;;;5097837;28;20422;-29
2023/09/20 04:30:36;;;;;;;;;;;;;;;;;;5096631;28;20037;-28
2023/09/20 04:33:03;;;;;;;;;;;;;;;;;;5097664;28;19908;-23
2023/09/20 04:35:29;;;;;;;;;;;;;;;;;;5097558;28;19909;-24
2023/09/20 04:37:55;;;;;;;;;;;;;;;;;;5097910;28;20208;-24
2023/09/20 04:40:21;;;;;;;;;;;;;;;;;;5097570;28;19912;-24
2023/09/20 04:42:47;;;;;;;;;;;;;;;;;;5097564;28;19908;-29
2023/09/20 04:45:14;;;;;;;;;;;;;;;;;;5097660;28;20346;-25
2023/09/20 04:47:40;;;;;;;;;;;;;;;;;;5097821;28;19959;-25
2023/09/20 04:50:07;;;;;;;;;;;;;;;;;;5097320;28;19919;-22
2023/09/20 04:52:33;;;;;;;;;;;;;;;;;;5097381;28;20002;-28
2023/09/20 04:54:59;;;;;;;;;;;;;;;;;;5097245;28;19908;-24
2023/09/20 04:57:25;;;;;;;;;;;;;;;;;;5097266;28;19919;-26
2023/09/20 04:59:51;;;;;;;;;;;;;;;;;;5097614;28;19976;-26
2023/09/20 05:02:17;;;;;;;;;;;;;;;;;;5096991;28;20006;-28
2023/09/20 05:04:43;;;;;;;;;;;;;;;;;;5097015;28;19908;-25
2023/09/20 05:07:09;;;;;;;;;;;;;;;;;;5096547;28;20373;-25
2023/09/20 05:09:35;;;;;;;;;;;;;;;;;;5096774;28;19908;-29
2023/09/20 05:12:04;;;;;;;;;;;;;;;;;;5096789;28;19908;-27
2023/09/20 05:14:30;;;;;;;;;;;;;;;;;;5096864;28;19908;-24
2023/09/20 05:16:56;;;;;;;;;;;;;;;;;;5096912;28;19981;-27
2023/09/20 05:19:23;;;;;;;;;;;;;;;;;;5096854;28;20343;-28
2023/09/20 05:21:49;;;;;;;;;;;;;;;;;;5097060;28;19909;-27
2023/09/20 05:24:15;;;;;;;;;;;;;;;;;;5096805;28;20339;-28
2023/09/20 05:26:41;;;;;;;;;;;;;;;;;;5096383;28;19924;-26
2023/09/20 05:29:07;;;;;;;;;;;;;;;;;;5096440;28;19931;-24
2023/09/20 05:31:33;;;;;;;;;;;;;;;;;;5096397;28;20254;-26
2023/09/20 05:33:59;;;;;;;;;;;;;;;;;;5096362;28;20326;-23
2023/09/20 05:36:27;;;;;;;;;;;;;;;;;;5096640;28;19908;-27
2023/09/20 05:38:53;;;;;;;;;;;;;;;;;;5096426;28;19919;-25
2023/09/20 05:41:19;;;;;;;;;;;;;;;;;;5096626;28;20003;-28
2023/09/20 05:43:45;;;;;;;;;;;;;;;;;;5096171;28;20310;-22
2023/09/20 05:46:13;;;;;;;;;;;;;;;;;;5096154;28;19963;-25
2023/09/20 05:48:39;;;;;;;;;;;;;;;;;;5095994;28;20371;-25
2023/09/20 05:51:05;;;;;;;;;;;;;;;;;;5096647;28;19919;-25
2023/09/20 05:53:32;;;;;;;;;;;;;;;;;;5095947;28;20259;-28
2023/09/20 05:55:58;;;;;;;;;;;;;;;;;;5096907;28;19908;-27
2023/09/20 05:58:25;;;;;;;;;;;;;;;;;;5096214;28;20354;-27
2023/09/20 06:00:51;;;;;;;;;;;;;;;;;;5096194;28;19918;-25
2023/09/20 06:03:17;;;;;;;;;;;;;;;;;;5095862;28;20003;-28
2023/09/20 06:05:44;;;;;;;;;;;;;;;;;;5094715;28;19909;-22
2023/09/20 06:08:11;;;;;;;;;;;;;;;;;;5095646;28;19923;-29
2023/09/20 06:10:37;;;;;;;;;;;;;;;;;;5095862;28;19909;-25
2023/09/20 06:13:06;;;;;;;;;;;;;;;;;;5094864;28;19917;-29
2023/09/20 06:15:33;;;;;;;;;;;;;;;;;;5095206;28;19908;-22
2023/09/20 06:17:59;;;;;;;;;;;;;;;;;;5095284;28;19939;-25
2023/09/20 06:20:25;;;;;;;;;;;;;;;;;;5095518;28;20322;-28
2023/09/20 06:22:51;;;;;;;;;;;;;;;;;;5095413;28;20298;-24
2023/09/20 06:25:19;;;;;;;;;;;;;;;;;;5095441;28;19908;-25
2023/09/20 06:27:45;;;;;;;;;;;;;;;;;;5094898;28;19927;-26
2023/09/20 06:30:14;;;;;;;;;;;;;;;;;;5095407;28;19912;-23
2023/09/20 06:32:40;;;;;;;;;;;;;;;;;;5094531;28;20192;-26
2023/09/20 06:35:07;;;;;;;;;;;;;;;;;;5095251;28;19999;-26
2023/09/20 06:37:37;;;;;;;;;;;;;;;;;;5095290;28;19962;-25
2023/09/20 06:40:03;;;;;;;;;;;;;;;;;;5095330;28;19999;-26
2023/09/20 06:42:30;;;;;;;;;;;;;;;;;;5095280;28;19908;-27
2023/09/20 06:44:56;;;;;;;;;;;;;;;;;;5095215;28;19919;-28
2023/09/20 06:47:22;;;;;;;;;;;;;;;;;;5095070;28;19912;-22
2023/09/20 06:49:48;;;;;;;;;;;;;;;;;;5095069;28;19916;-24
2023/09/20 06:52:14;;;;;;;;;;;;;;;;;;5095072;28;19969;-23
2023/09/20 06:54:40;;;;;;;;;;;;;;;;;;5095309;28;20311;-26
2023/09/20 06:57:06;;;;;;;;;;;;;;;;;;5095012;28;19944;-26
2023/09/20 06:59:32;;;;;;;;;;;;;;;;;;5094707;28;19908;-29
2023/09/20 07:01:58;;;;;;;;;;;;;;;;;;5094740;28;19908;-23
2023/09/20 07:04:25;;;;;;;;;;;;;;;;;;5094684;28;19915;-25
2023/09/20 07:06:51;;;;;;;;;;;;;;;;;;5094657;28;19916;-26
2023/09/20 07:09:17;;;;;;;;;;;;;;;;;;5094832;28;19939;-26
2023/09/20 07:11:43;;;;;;;;;;;;;;;;;;5094478;28;20387;-25
2023/09/20 07:14:11;;;;;;;;;;;;;;;;;;5094609;28;20394;-22
2023/09/20 07:16:37;;;;;;;;;;;;;;;;;;5094721;28;19908;-23
2023/09/20 07:19:05;;;;;;;;;;;;;;;;;;5094927;28;19919;-29
2023/09/20 07:21:34;;;;;;;;;;;;;;;;;;5094552;28;19918;-25
2023/09/20 07:24:02;;;;;;;;;;;;;;;;;;5094249;28;19983;-23
2023/09/20 07:26:29;;;;;;;;;;;;;;;;;;5094233;28;20443;-25
2023/09/20 07:28:55;;;;;;;;;;;;;;;;;;5094594;28;19908;-25
2023/09/20 07:31:24;;;;;;;;;;;;;;;;;;5094534;28;20368;-24
2023/09/20 07:33:50;;;;;;;;;;;;;;;;;;5094475;28;19908;-23
2023/09/20 07:36:16;;;;;;;;;;;;;;;;;;5094557;28;19909;-22
2023/09/20 07:38:42;;;;;;;;;;;;;;;;;;5094642;28;19948;-25
2023/09/20 07:41:17;;;;;;;;;;;;;;;;;;5094319;28;19908;-28
2023/09/20 07:43:44;;;;;;;;;;;;;;;;;;5096888;28;20006;-23
2023/09/20 07:46:09;;;;;;;;;;;;;;;;;;5098291;28;19919;-26
2023/09/20 07:48:37;;;;;;;;;;;;;;;;;;5098370;28;19908;-24
2023/09/20 07:51:04;;;;;;;;;;;;;;;;;;5098367;28;19919;-22
2023/09/20 07:53:30;;;;;;;;;;;;;;;;;;5097261;28;20355;-26
2023/09/20 07:55:56;;;;;;;;;;;;;;;;;;5098228;28;19951;-29
2023/09/20 07:58:22;;;;;;;;;;;;;;;;;;5098239;28;20251;-25
2023/09/20 08:00:51;;;;;;;;;;;;;;;;;;5098122;28;20339;-29
2023/09/20 08:03:20;;;;;;;;;;;;;;;;;;5097712;28;20002;-22
2023/09/20 08:05:46;;;;;;;;;;;;;;;;;;5098400;28;19931;-24
2023/09/20 08:08:12;;;;;;;;;;;;;;;;;;5096735;28;20343;-24
2023/09/20 08:10:40;;;;;;;;;;;;;;;;;;5097841;28;19935;-26
2023/09/20 08:13:06;;;;;;;;;;;;;;;;;;5098054;28;20058;-25
2023/09/20 08:15:37;;;;;;;;;;;;;;;;;;5098096;28;19947;-27
2023/09/20 08:20:47;;;;;;;;;;;;;;;;;;5098065;28;19919;-30
2023/09/20 09:01:44;;;;;;;;;;;;;;;;;;5096837;28;19972;-26
2023/09/20 09:04:10;;;;;;;;;;;;;;;;;;5096711;28;19919;-31
2023/09/20 09:06:36;;;;;;;;;;;;;;;;;;5096514;28;19916;-26
2023/09/20 09:09:02;;;;;;;;;;;;;;;;;;5096539;28;20226;-26
2023/09/20 09:11:28;;;;;;;;;;;;;;;;;;5095406;28;19908;-22
2023/09/20 09:13:54;;;;;;;;;;;;;;;;;;5096343;28;19908;-26
2023/09/20 09:16:20;;;;;;;;;;;;;;;;;;5095270;28;19970;-23
2023/09/20 09:18:48;;;;;;;;;;;;;;;;;;5096556;28;19943;-29
2023/09/20 09:21:17;;;;;;;;;;;;;;;;;;5096265;28;19908;-24
2023/09/20 09:23:45;;;;;;;;;;;;;;;;;;5095319;28;19915;-27
2023/09/20 09:26:11;;;;;;;;;;;;;;;;;;5096658;28;20293;-25
2023/09/20 09:28:38;;;;;;;;;;;;;;;;;;5096722;28;20026;-24
2023/09/20 09:31:05;;;;;;;;;;;;;;;;;;5096779;28;19908;-29
2023/09/20 09:33:31;;;;;;;;;;;;;;;;;;5096394;28;20232;-21
2023/09/20 09:35:56;;;;;;;;;;;;;;;;;;5096710;28;19915;-26
2023/09/20 09:38:23;;;;;;;;;;;;;;;;;;5096649;28;19919;-24
2023/09/20 09:40:49;;;;;;;;;;;;;;;;;;5096436;28;19915;-25
2023/09/20 09:43:15;;;;;;;;;;;;;;;;;;5096307;28;20342;-26
2023/09/20 09:45:44;;;;;;;;;;;;;;;;;;5096558;28;20276;-25
2023/09/20 09:48:10;;;;;;;;;;;;;;;;;;5096060;28;19923;-22
2023/09/20 09:50:38;;;;;;;;;;;;;;;;;;5096213;28;19908;-24
2023/09/20 09:53:04;;;;;;;;;;;;;;;;;;5095884;28;19919;-29
2023/09/20 09:55:30;;;;;;;;;;;;;;;;;;5096017;28;19961;-24
2023/09/20 09:57:55;;;;;;;;;;;;;;;;;;5096241;28;19974;-24
2023/09/20 10:00:22;;;;;;;;;;;;;;;;;;5095711;28;19979;-24
2023/09/20 10:02:48;;;;;;;;;;;;;;;;;;5095710;28;19962;-29
2023/09/20 10:05:14;;;;;;;;;;;;;;;;;;5096048;28;19908;-21
2023/09/20 10:07:40;;;;;;;;;;;;;;;;;;5094920;28;19952;-24
2023/09/20 10:10:12;;;;;;;;;;;;;;;;;;5095606;28;19908;-24
2023/09/20 10:12:38;;;;;;;;;;;;;;;;;;5095775;28;19912;-23
2023/09/20 10:15:07;;;;;;;;;;;;;;;;;;5095676;28;19998;-23
2023/09/20 10:17:34;;;;;;;;;;;;;;;;;;5095483;28;19912;-25
2023/09/20 10:20:00;;;;;;;;;;;;;;;;;;5095370;28;20026;-23
2023/09/20 10:22:26;;;;;;;;;;;;;;;;;;5094401;28;20000;-26
2023/09/20 10:24:58;;;;;;;;;;;;;;;;;;5094390;28;20313;-24
2023/09/20 10:27:24;;;;;;;;;;;;;;;;;;5095057;28;20279;-27
2023/09/20 10:29:50;;;;;;;;;;;;;;;;;;5095401;28;19909;-22
2023/09/20 10:32:18;;;;;;;;;;;;;;;;;;5095032;28;20408;-23
2023/09/20 10:34:44;;;;;;;;;;;;;;;;;;5095324;28;19908;-24
2023/09/20 10:37:10;;;;;;;;;;;;;;;;;;5095349;28;19918;-25
2023/09/20 10:39:36;;;;;;;;;;;;;;;;;;5095326;28;19908;-22
2023/09/20 10:42:04;;;;;;;;;;;;;;;;;;5095277;28;19973;-24
2023/09/20 10:44:30;;;;;;;;;;;;;;;;;;5095051;28;19908;-22
2023/09/20 10:46:58;;;;;;;;;;;;;;;;;;5094955;28;19916;-28
2023/09/20 10:49:24;;;;;;;;;;;;;;;;;;5094979;28;19973;-24
2023/09/20 10:51:53;;;;;;;;;;;;;;;;;;5094863;28;20015;-23
2023/09/20 10:54:19;;;;;;;;;;;;;;;;;;5094831;28;20320;-24
2023/09/20 10:56:45;;;;;;;;;;;;;;;;;;5094775;28;19908;-30
2023/09/20 10:59:11;;;;;;;;;;;;;;;;;;5094131;28;19915;-27
2023/09/20 11:01:36;;;;;;;;;;;;;;;;;;5094225;28;19908;-24
2023/09/20 11:04:03;;;;;;;;;;;;;;;;;;5094117;28;20302;-26
2023/09/20 11:06:29;;;;;;;;;;;;;;;;;;5094261;28;19922;-26
2023/09/20 11:08:55;;;;;;;;;;;;;;;;;;5093064;28;19908;-23
2023/09/20 11:11:23;;;;;;;;;;;;;;;;;;5094034;28;19919;-26
2023/09/20 11:13:49;;;;;;;;;;;;;;;;;;5092823;28;19912;-27
2023/09/20 11:16:15;;;;;;;;;;;;;;;;;;5092927;28;19908;-25
2023/09/20 11:18:42;;;;;;;;;;;;;;;;;;5093817;28;19919;-24
2023/09/20 11:21:08;;;;;;;;;;;;;;;;;;5094098;28;19908;-25
2023/09/20 11:23:34;;;;;;;;;;;;;;;;;;5093938;28;20224;-24
2023/09/20 11:26:00;;;;;;;;;;;;;;;;;;5094126;28;19928;-24
2023/09/20 11:28:28;;;;;;;;;;;;;;;;;;5093563;28;20208;-22
2023/09/20 11:30:55;;;;;;;;;;;;;;;;;;5094325;28;19908;-21
2023/09/20 11:33:21;;;;;;;;;;;;;;;;;;5094260;28;19924;-24
2023/09/20 11:35:47;;;;;;;;;;;;;;;;;;5093305;28;19915;-21
2023/09/20 11:38:15;;;;;;;;;;;;;;;;;;5094217;28;19944;-23
2023/09/20 11:40:41;;;;;;;;;;;;;;;;;;5094145;28;19922;-25
2023/09/20 11:43:09;;;;;;;;;;;;;;;;;;5094253;28;19966;-25
2023/09/20 11:45:35;;;;;;;;;;;;;;;;;;5094533;28;19976;-23
2023/09/20 11:48:02;;;;;;;;;;;;;;;;;;5094092;28;20338;-26
2023/09/20 11:50:28;;;;;;;;;;;;;;;;;;5094166;28;20350;-25
2023/09/20 11:52:54;;;;;;;;;;;;;;;;;;5094149;28;19908;-19
2023/09/20 11:55:20;;;;;;;;;;;;;;;;;;5094432;28;20299;-24
2023/09/20 11:57:46;;;;;;;;;;;;;;;;;;5094205;28;19908;-27
2023/09/20 12:00:12;;;;;;;;;;;;;;;;;;5094083;28;19908;-23
2023/09/20 12:02:40;;;;;;;;;;;;;;;;;;5093828;28;19997;-27
2023/09/20 12:05:07;;;;;;;;;;;;;;;;;;5094433;28;20282;-22
2023/09/20 12:07:34;;;;;;;;;;;;;;;;;;5094034;28;20338;-22
2023/09/20 12:10:00;;;;;;;;;;;;;;;;;;5094060;28;19977;-30
2023/09/20 12:12:27;;;;;;;;;;;;;;;;;;5094094;28;20281;-23
2023/09/20 12:14:53;;;;;;;;;;;;;;;;;;5094020;28;19908;-25
2023/09/20 12:17:19;;;;;;;;;;;;;;;;;;5094617;28;19947;-31
2023/09/20 12:19:45;;;;;;;;;;;;;;;;;;5093707;28;19935;-24
2023/09/20 12:22:12;;;;;;;;;;;;;;;;;;5093852;28;19916;-25
2023/09/20 12:24:37;;;;;;;;;;;;;;;;;;5092735;28;20250;-23
2023/09/20 12:27:05;;;;;;;;;;;;;;;;;;5093419;28;19945;-26
2023/09/20 12:29:31;;;;;;;;;;;;;;;;;;5094717;28;20025;-23
2023/09/20 12:31:57;;;;;;;;;;;;;;;;;;5097670;28;20350;-26
2023/09/20 12:34:22;;;;;;;;;;;;;;;;;;5096375;28;20347;-24
2023/09/20 12:36:49;;;;;;;;;;;;;;;;;;5097792;28;19908;-26
2023/09/20 12:39:16;;;;;;;;;;;;;;;;;;5096234;28;19927;-23
2023/09/20 12:41:42;;;;;;;;;;;;;;;;;;5097286;28;19916;-29
2023/09/20 12:44:08;;;;;;;;;;;;;;;;;;5097046;28;19958;-27
2023/09/20 12:46:36;;;;;;;;;;;;;;;;;;5097548;28;20327;-28
2023/09/20 12:49:01;;;;;;;;;;;;;;;;;;5097346;28;19916;-23
2023/09/20 12:51:27;;;;;;;;;;;;;;;;;;5097139;28;19922;-29
2023/09/20 12:53:53;;;;;;;;;;;;;;;;;;5097163;28;19908;-26
2023/09/20 12:56:19;;;;;;;;;;;;;;;;;;5097099;28;20005;-26
2023/09/20 12:58:46;;;;;;;;;;;;;;;;;;5096959;28;19908;-22
2023/09/20 13:01:12;;;;;;;;;;;;;;;;;;5097178;28;19908;-26
2023/09/20 13:03:40;;;;;;;;;;;;;;;;;;5097179;28;20217;-24
2023/09/20 13:06:07;;;;;;;;;;;;;;;;;;5097371;28;19999;-23
2023/09/20 13:08:33;;;;;;;;;;;;;;;;;;5097393;28;20003;-24
2023/09/20 13:10:59;;;;;;;;;;;;;;;;;;5097122;28;20248;-29
2023/09/20 13:13:25;;;;;;;;;;;;;;;;;;5096851;28;19908;-25
2023/09/20 13:15:52;;;;;;;;;;;;;;;;;;5096908;28;19912;-28
2023/09/20 13:18:18;;;;;;;;;;;;;;;;;;5096886;28;19908;-26
2023/09/20 13:20:44;;;;;;;;;;;;;;;;;;5097217;28;19915;-20
2023/09/20 13:23:10;;;;;;;;;;;;;;;;;;5096683;28;19908;-27
2023/09/20 13:25:39;;;;;;;;;;;;;;;;;;5096503;28;20255;-28
2023/09/20 13:28:05;;;;;;;;;;;;;;;;;;5096588;28;19988;-24
2023/09/20 13:30:31;;;;;;;;;;;;;;;;;;5096902;28;19912;-25
2023/09/20 13:32:57;;;;;;;;;;;;;;;;;;5096400;28;19912;-25
2023/09/20 13:35:23;;;;;;;;;;;;;;;;;;5096587;28;19916;-25
2023/09/20 13:37:49;;;;;;;;;;;;;;;;;;5095462;28;19908;-26
2023/09/20 13:40:15;;;;;;;;;;;;;;;;;;5096544;28;19999;-26
2023/09/20 13:42:44;;;;;;;;;;;;;;;;;;5096370;28;19919;-25
2023/09/20 13:45:10;;;;;;;;;;;;;;;;;;5096573;28;20241;-24
2023/09/20 13:47:39;;;;;;;;;;;;;;;;;;5095237;28;19930;-25
2023/09/20 13:50:07;;;;;;;;;;;;;;;;;;5096611;28;19915;-25
2023/09/20 13:52:33;;;;;;;;;;;;;;;;;;5096538;28;19958;-23
2023/09/20 13:54:58;;;;;;;;;;;;;;;;;;5096208;28;20334;-24
2023/09/20 13:57:24;;;;;;;;;;;;;;;;;;5096355;28;20309;-21
2023/09/20 13:59:55;;;;;;;;;;;;;;;;;;5096156;28;19920;-23
2023/09/20 14:02:20;;;;;;;;;;;;;;;;;;5096001;28;19920;-26
2023/09/20 14:04:46;;;;;;;;;;;;;;;;;;5095668;28;19935;-22
2023/09/20 14:07:12;;;;;;;;;;;;;;;;;;5095611;28;19923;-30
2023/09/20 14:09:42;;;;;;;;;;;;;;;;;;5094740;28;19908;-27
2023/09/20 14:12:08;;;;;;;;;;;;;;;;;;5095629;28;19914;-25
2023/09/20 14:14:34;;;;;;;;;;;;;;;;;;5095769;28;19915;-23
2023/09/20 14:17:00;;;;;;;;;;;;;;;;;;5095724;28;20347;-25
2023/09/20 14:19:26;;;;;;;;;;;;;;;;;;5095765;28;20040;-23
2023/09/20 14:21:52;;;;;;;;;;;;;;;;;;5095690;28;19908;-28
2023/09/20 14:24:19;;;;;;;;;;;;;;;;;;5095587;28;20242;-26
2023/09/20 14:26:46;;;;;;;;;;;;;;;;;;5094858;28;19952;-28
2023/09/20 14:29:13;;;;;;;;;;;;;;;;;;5094919;28;20304;-23
2023/09/20 14:31:39;;;;;;;;;;;;;;;;;;5094885;28;19908;-31
2023/09/20 14:34:10;;;;;;;;;;;;;;;;;;5094839;28;19908;-25
2023/09/20 14:36:36;;;;;;;;;;;;;;;;;;5094833;28;20346;-28
2023/09/20 14:39:03;;;;;;;;;;;;;;;;;;5094976;28;19923;-29
2023/09/20 14:41:29;;;;;;;;;;;;;;;;;;5095058;28;19908;-27
2023/09/20 14:43:55;;;;;;;;;;;;;;;;;;5095250;28;19908;-28
2023/09/20 14:46:21;;;;;;;;;;;;;;;;;;5095098;28;19912;-26
2023/09/20 14:48:47;;;;;;;;;;;;;;;;;;5095512;28;20255;-23
2023/09/20 14:51:15;;;;;;;;;;;;;;;;;;5094495;28;20030;-22
2023/09/20 14:53:41;;;;;;;;;;;;;;;;;;5094436;28;19912;-24
2023/09/20 14:56:07;;;;;;;;;;;;;;;;;;5095476;28;19995;-28
2023/09/20 14:58:35;;;;;;;;;;;;;;;;;;5094860;28;20012;-27
2023/09/20 15:01:01;;;;;;;;;;;;;;;;;;5095746;28;20293;-27
2023/09/20 15:03:27;;;;;;;;;;;;;;;;;;5094879;28;19912;-25
2023/09/20 15:05:53;;;;;;;;;;;;;;;;;;5093935;28;19908;-28
2023/09/20 15:08:20;;;;;;;;;;;;;;;;;;5094935;28;20335;-23
2023/09/20 15:10:46;;;;;;;;;;;;;;;;;;5094796;28;20235;-26
2023/09/20 15:13:12;;;;;;;;;;;;;;;;;;5094683;28;19932;-28
2023/09/20 15:15:38;;;;;;;;;;;;;;;;;;5094396;28;20376;-24
2023/09/20 15:18:05;;;;;;;;;;;;;;;;;;5093082;28;20323;-27
2023/09/20 15:20:31;;;;;;;;;;;;;;;;;;5093138;28;19911;-21
2023/09/20 15:22:58;;;;;;;;;;;;;;;;;;5094343;28;19989;-23
2023/09/20 15:25:25;;;;;;;;;;;;;;;;;;5094388;28;19936;-21
2023/09/20 15:27:54;;;;;;;;;;;;;;;;;;5093839;28;19924;-25
2023/09/20 15:30:21;;;;;;;;;;;;;;;;;;5094236;28;20309;-27
2023/09/20 15:32:47;;;;;;;;;;;;;;;;;;5093967;28;19908;-26
2023/09/20 15:35:13;;;;;;;;;;;;;;;;;;5094058;28;19966;-24
2023/09/20 15:37:41;;;;;;;;;;;;;;;;;;5092961;28;19919;-22
2023/09/20 15:40:09;;;;;;;;;;;;;;;;;;5094184;28;19909;-23
2023/09/20 15:42:35;;;;;;;;;;;;;;;;;;5094470;28;19947;-23
2023/09/20 15:45:01;;;;;;;;;;;;;;;;;;5093371;28;19912;-26
2023/09/20 15:47:27;;;;;;;;;;;;;;;;;;5094705;28;19920;-25
2023/09/20 15:49:55;;;;;;;;;;;;;;;;;;5093404;28;19912;-20
2023/09/20 15:52:21;;;;;;;;;;;;;;;;;;5093293;28;19998;-26
2023/09/20 15:54:47;;;;;;;;;;;;;;;;;;5094395;28;19919;-27
2023/09/20 15:57:12;;;;;;;;;;;;;;;;;;5094255;28;19908;-25
2023/09/20 15:59:44;;;;;;;;;;;;;;;;;;5094575;28;20363;-26
2023/09/20 16:02:10;;;;;;;;;;;;;;;;;;5094449;28;19973;-28
2023/09/20 16:04:36;;;;;;;;;;;;;;;;;;5097150;28;19908;-23
2023/09/20 16:07:03;;;;;;;;;;;;;;;;;;5098240;28;19923;-25
2023/09/20 16:09:29;;;;;;;;;;;;;;;;;;5097953;28;19908;-27
2023/09/20 16:11:55;;;;;;;;;;;;;;;;;;5097896;28;19981;-21
2023/09/20 16:14:21;;;;;;;;;;;;;;;;;;5097689;28;20250;-23
2023/09/20 16:16:47;;;;;;;;;;;;;;;;;;5097993;28;19912;-20
2023/09/20 16:19:13;;;;;;;;;;;;;;;;;;5097440;28;19969;-22
2023/09/20 16:21:39;;;;;;;;;;;;;;;;;;5097813;28;19920;-26
2023/09/20 16:24:05;;;;;;;;;;;;;;;;;;5097667;28;19930;-25
2023/09/20 16:26:31;;;;;;;;;;;;;;;;;;5097396;28;20351;-26
2023/09/20 16:28:57;;;;;;;;;;;;;;;;;;5097709;28;19918;-25
2023/09/20 16:31:23;;;;;;;;;;;;;;;;;;5097711;28;19908;-23
2023/09/20 16:33:50;;;;;;;;;;;;;;;;;;5097547;28;19909;-30
2023/09/20 16:36:16;;;;;;;;;;;;;;;;;;5097961;28;19959;-23
2023/09/20 16:38:44;;;;;;;;;;;;;;;;;;5098003;28;19908;-24
2023/09/20 16:41:10;;;;;;;;;;;;;;;;;;5097621;28;19908;-22
2023/09/20 16:43:36;;;;;;;;;;;;;;;;;;5097841;28;19920;-29
2023/09/20 16:46:03;;;;;;;;;;;;;;;;;;5097548;28;19919;-24
2023/09/20 16:48:29;;;;;;;;;;;;;;;;;;5097884;28;20007;-25
2023/09/20 16:50:56;;;;;;;;;;;;;;;;;;5097390;28;19957;-26
2023/09/20 16:53:22;;;;;;;;;;;;;;;;;;5097525;28;19916;-24
2023/09/20 16:55:48;;;;;;;;;;;;;;;;;;5096507;28;20368;-23
2023/09/20 16:58:14;;;;;;;;;;;;;;;;;;5097068;28;19915;-24
2023/09/20 17:00:40;;;;;;;;;;;;;;;;;;5097404;28;19912;-26
2023/09/20 17:03:07;;;;;;;;;;;;;;;;;;5097138;28;19909;-33
2023/09/20 17:05:33;;;;;;;;;;;;;;;;;;5097437;28;19908;-24
2023/09/20 17:07:59;;;;;;;;;;;;;;;;;;5097324;28;19919;-24
2023/09/20 17:10:28;;;;;;;;;;;;;;;;;;5097524;28;19916;-24
2023/09/20 17:12:54;;;;;;;;;;;;;;;;;;5096058;28;19919;-26
2023/09/20 17:15:21;;;;;;;;;;;;;;;;;;5096258;28;19908;-31
2023/09/20 17:17:47;;;;;;;;;;;;;;;;;;5096950;28;20347;-28
2023/09/20 17:20:14;;;;;;;;;;;;;;;;;;5096732;28;19978;-24
2023/09/20 17:22:40;;;;;;;;;;;;;;;;;;5096694;28;20327;-24